sensor_id;sensor_type;location;lat;lon;timestamp;pressure;altitude;pressure_sealevel;temperature;humidity
21290;BME280;10804;48.988;2.408;2022-07-21T00:00:26;101251.59;;;25.13;50.84
21290;BME280;10804;48.988;2.408;2022-07-21T00:02:55;101243.81;;;25.10;50.85
21290;BME280;10804;48.988;2.408;2022-07-21T00:05:23;101234.09;;;25.09;50.87
21290;BME280;10804;48.988;2.408;2022-07-21T00:07:51;101239.44;;;25.09;50.94
21290;BME280;10804;48.988;2.408;2022-07-21T00:10:20;101234.09;;;25.09;50.94
21290;BME280;10804;48.988;2.408;2022-07-21T00:12:48;101231.44;;;25.09;50.88
21290;BME280;10804;48.988;2.408;2022-07-21T00:15:18;101235.94;;;25.08;50.87
21290;BME280;10804;48.988;2.408;2022-07-21T00:17:47;101232.66;;;25.05;50.89
21290;BME280;10804;48.988;2.408;2022-07-21T00:20:15;101230.69;;;25.07;50.81
21290;BME280;10804;48.988;2.408;2022-07-21T00:22:43;101221.97;;;25.05;50.92
21290;BME280;10804;48.988;2.408;2022-07-21T00:25:12;101228.16;;;25.05;50.91
21290;BME280;10804;48.988;2.408;2022-07-21T00:27:41;101237.22;;;25.03;50.88
21290;BME280;10804;48.988;2.408;2022-07-21T00:30:10;101230.09;;;25.03;50.93
21290;BME280;10804;48.988;2.408;2022-07-21T00:32:39;101239.91;;;25.03;50.84
21290;BME280;10804;48.988;2.408;2022-07-21T00:35:08;101248.06;;;25.01;50.73
21290;BME280;10804;48.988;2.408;2022-07-21T00:37:35;101233.84;;;25.01;50.99
21290;BME280;10804;48.988;2.408;2022-07-21T00:40:04;101238.34;;;25.00;50.98
21290;BME280;10804;48.988;2.408;2022-07-21T00:42:32;101234.91;;;24.98;50.91
21290;BME280;10804;48.988;2.408;2022-07-21T00:45:00;101236.75;;;24.98;50.97
21290;BME280;10804;48.988;2.408;2022-07-21T00:47:29;101232.25;;;24.98;50.92
21290;BME280;10804;48.988;2.408;2022-07-21T00:50:00;101224.38;;;24.97;51.02
21290;BME280;10804;48.988;2.408;2022-07-21T00:52:28;101226.09;;;24.98;51.00
21290;BME280;10804;48.988;2.408;2022-07-21T00:54:56;101235.16;;;24.95;51.04
21290;BME280;10804;48.988;2.408;2022-07-21T00:57:23;101230.81;;;24.94;50.82
21290;BME280;10804;48.988;2.408;2022-07-21T00:59:51;101228.25;;;24.93;51.02
21290;BME280;10804;48.988;2.408;2022-07-21T01:02:18;101230.91;;;24.93;50.95
21290;BME280;10804;48.988;2.408;2022-07-21T01:04:45;101227.41;;;24.92;50.92
21290;BME280;10804;48.988;2.408;2022-07-21T01:07:14;101225.69;;;24.91;51.07
21290;BME280;10804;48.988;2.408;2022-07-21T01:09:42;101221.31;;;24.90;50.95
21290;BME280;10804;48.988;2.408;2022-07-21T01:12:10;101214.41;;;24.88;50.97
21290;BME280;10804;48.988;2.408;2022-07-21T01:14:38;101230.28;;;24.89;50.98
21290;BME280;10804;48.988;2.408;2022-07-21T01:17:05;101230.41;;;24.88;51.08
21290;BME280;10804;48.988;2.408;2022-07-21T01:19:33;101234.03;;;24.87;51.07
21290;BME280;10804;48.988;2.408;2022-07-21T01:22:01;101220.84;;;24.85;51.07
21290;BME280;10804;48.988;2.408;2022-07-21T01:24:29;101217.31;;;24.85;51.08
21290;BME280;10804;48.988;2.408;2022-07-21T01:26:56;101214.75;;;24.83;51.04
21290;BME280;10804;48.988;2.408;2022-07-21T01:29:24;101208.69;;;24.81;51.04
21290;BME280;10804;48.988;2.408;2022-07-21T01:31:51;101207.84;;;24.81;51.01
21290;BME280;10804;48.988;2.408;2022-07-21T01:34:19;101200.78;;;24.80;51.09
21290;BME280;10804;48.988;2.408;2022-07-21T01:36:47;101204.44;;;24.79;51.09
21290;BME280;10804;48.988;2.408;2022-07-21T01:39:15;101211.72;;;24.77;51.22
21290;BME280;10804;48.988;2.408;2022-07-21T01:42:01;101210.00;;;24.76;51.10
21290;BME280;10804;48.988;2.408;2022-07-21T01:44:28;101208.31;;;24.75;51.01
21290;BME280;10804;48.988;2.408;2022-07-21T01:46:58;101219.00;;;24.75;51.07
21290;BME280;10804;48.988;2.408;2022-07-21T01:49:28;101209.41;;;24.73;51.06
21290;BME280;10804;48.988;2.408;2022-07-21T01:51:56;101208.53;;;24.72;51.05
21290;BME280;10804;48.988;2.408;2022-07-21T01:54:25;101209.66;;;24.70;51.27
21290;BME280;10804;48.988;2.408;2022-07-21T01:56:52;101212.41;;;24.68;51.14
21290;BME280;10804;48.988;2.408;2022-07-21T01:59:20;101215.09;;;24.68;51.06
21290;BME280;10804;48.988;2.408;2022-07-21T02:01:47;101212.63;;;24.65;51.21
21290;BME280;10804;48.988;2.408;2022-07-21T02:04:14;101211.69;;;24.66;51.12
21290;BME280;10804;48.988;2.408;2022-07-21T02:06:42;101210.94;;;24.64;51.24
21290;BME280;10804;48.988;2.408;2022-07-21T02:09:10;101211.06;;;24.63;51.09
21290;BME280;10804;48.988;2.408;2022-07-21T02:11:39;101208.50;;;24.61;51.20
21290;BME280;10804;48.988;2.408;2022-07-21T02:14:06;101211.19;;;24.61;51.27
21290;BME280;10804;48.988;2.408;2022-07-21T02:16:34;101213.97;;;24.60;51.30
21290;BME280;10804;48.988;2.408;2022-07-21T02:19:02;101220.38;;;24.57;51.27
21290;BME280;10804;48.988;2.408;2022-07-21T02:21:29;101224.88;;;24.57;51.20
21290;BME280;10804;48.988;2.408;2022-07-21T02:23:57;101235.66;;;24.55;51.30
21290;BME280;10804;48.988;2.408;2022-07-21T02:26:24;101238.53;;;24.52;51.33
21290;BME280;10804;48.988;2.408;2022-07-21T02:28:53;101241.31;;;24.51;51.37
21290;BME280;10804;48.988;2.408;2022-07-21T02:31:20;101236.81;;;24.51;51.38
21290;BME280;10804;48.988;2.408;2022-07-21T02:33:48;101235.22;;;24.49;51.57
21290;BME280;10804;48.988;2.408;2022-07-21T02:36:15;101238.72;;;24.49;51.45
21290;BME280;10804;48.988;2.408;2022-07-21T02:38:43;101231.69;;;24.48;51.37
21290;BME280;10804;48.988;2.408;2022-07-21T02:41:10;101230.00;;;24.47;51.53
21290;BME280;10804;48.988;2.408;2022-07-21T02:43:37;101237.28;;;24.45;51.45
21290;BME280;10804;48.988;2.408;2022-07-21T02:46:06;101227.44;;;24.46;51.62
21290;BME280;10804;48.988;2.408;2022-07-21T02:48:33;101230.25;;;24.44;51.72
21290;BME280;10804;48.988;2.408;2022-07-21T02:51:01;101228.56;;;24.43;51.45
21290;BME280;10804;48.988;2.408;2022-07-21T02:53:28;101236.56;;;24.43;51.67
21290;BME280;10804;48.988;2.408;2022-07-21T02:55:56;101236.75;;;24.40;51.57
21290;BME280;10804;48.988;2.408;2022-07-21T02:58:26;101234.97;;;24.41;51.56
21290;BME280;10804;48.988;2.408;2022-07-21T03:00:55;101236.88;;;24.39;51.67
21290;BME280;10804;48.988;2.408;2022-07-21T03:03:26;101243.16;;;24.38;51.72
21290;BME280;10804;48.988;2.408;2022-07-21T03:05:54;101248.63;;;24.36;51.74
21290;BME280;10804;48.988;2.408;2022-07-21T03:08:23;101242.53;;;24.34;51.75
21290;BME280;10804;48.988;2.408;2022-07-21T03:10:51;101247.16;;;24.32;51.93
21290;BME280;10804;48.988;2.408;2022-07-21T03:13:18;101252.47;;;24.32;51.90
21290;BME280;10804;48.988;2.408;2022-07-21T03:15:46;101249.91;;;24.31;52.04
21290;BME280;10804;48.988;2.408;2022-07-21T03:18:14;101258.06;;;24.29;51.98
21290;BME280;10804;48.988;2.408;2022-07-21T03:20:43;101242.25;;;24.26;52.05
21290;BME280;10804;48.988;2.408;2022-07-21T03:23:11;101249.28;;;24.27;51.76
21290;BME280;10804;48.988;2.408;2022-07-21T03:25:38;101256.34;;;24.28;52.04
21290;BME280;10804;48.988;2.408;2022-07-21T03:28:06;101258.25;;;24.26;51.93
21290;BME280;10804;48.988;2.408;2022-07-21T03:30:34;101266.25;;;24.26;52.07
21290;BME280;10804;48.988;2.408;2022-07-21T03:33:01;101256.56;;;24.25;52.01
21290;BME280;10804;48.988;2.408;2022-07-21T03:35:29;101258.50;;;24.23;52.05
21290;BME280;10804;48.988;2.408;2022-07-21T03:37:59;101260.31;;;24.23;52.02
21290;BME280;10804;48.988;2.408;2022-07-21T03:40:28;101261.28;;;24.22;51.95
21290;BME280;10804;48.988;2.408;2022-07-21T03:42:58;101267.66;;;24.19;51.98
21290;BME280;10804;48.988;2.408;2022-07-21T03:45:26;101265.00;;;24.19;51.94
21290;BME280;10804;48.988;2.408;2022-07-21T03:47:56;101265.97;;;24.18;52.22
21290;BME280;10804;48.988;2.408;2022-07-21T03:50:25;101272.28;;;24.17;52.20
21290;BME280;10804;48.988;2.408;2022-07-21T03:52:52;101274.94;;;24.17;52.20
21290;BME280;10804;48.988;2.408;2022-07-21T03:55:21;101267.03;;;24.16;52.13
21290;BME280;10804;48.988;2.408;2022-07-21T03:57:50;101267.91;;;24.16;52.30
21290;BME280;10804;48.988;2.408;2022-07-21T04:00:20;101270.56;;;24.16;52.18
21290;BME280;10804;48.988;2.408;2022-07-21T04:02:48;101264.50;;;24.14;52.10
21290;BME280;10804;48.988;2.408;2022-07-21T04:05:16;101275.19;;;24.14;51.91
21290;BME280;10804;48.988;2.408;2022-07-21T04:07:46;101279.63;;;24.14;52.23
21290;BME280;10804;48.988;2.408;2022-07-21T04:10:16;101276.25;;;24.12;52.07
21290;BME280;10804;48.988;2.408;2022-07-21T04:12:45;101273.69;;;24.10;52.24
21290;BME280;10804;48.988;2.408;2022-07-21T04:15:13;101280.72;;;24.11;52.12
21290;BME280;10804;48.988;2.408;2022-07-21T04:17:41;101271.97;;;24.09;52.20
21290;BME280;10804;48.988;2.408;2022-07-21T04:20:09;101275.63;;;24.08;52.28
21290;BME280;10804;48.988;2.408;2022-07-21T04:22:38;101274.75;;;24.08;52.16
21290;BME280;10804;48.988;2.408;2022-07-21T04:25:07;101281.91;;;24.07;52.34
21290;BME280;10804;48.988;2.408;2022-07-21T04:27:35;101282.88;;;24.06;52.22
21290;BME280;10804;48.988;2.408;2022-07-21T04:30:06;101284.69;;;24.06;52.21
21290;BME280;10804;48.988;2.408;2022-07-21T04:32:34;101286.50;;;24.05;52.09
21290;BME280;10804;48.988;2.408;2022-07-21T04:35:02;101283.09;;;24.03;52.18
21290;BME280;10804;48.988;2.408;2022-07-21T04:37:30;101292.91;;;24.03;52.47
21290;BME280;10804;48.988;2.408;2022-07-21T04:39:57;101292.91;;;24.03;52.37
21290;BME280;10804;48.988;2.408;2022-07-21T04:42:25;101290.34;;;24.01;52.25
21290;BME280;10804;48.988;2.408;2022-07-21T04:44:52;101300.16;;;24.01;52.22
21290;BME280;10804;48.988;2.408;2022-07-21T04:47:21;101304.63;;;24.00;52.53
21290;BME280;10804;48.988;2.408;2022-07-21T04:49:49;101308.28;;;23.99;52.53
21290;BME280;10804;48.988;2.408;2022-07-21T04:52:16;101296.88;;;23.97;52.46
21290;BME280;10804;48.988;2.408;2022-07-21T04:54:44;101303.91;;;23.98;52.21
21290;BME280;10804;48.988;2.408;2022-07-21T04:57:11;101300.38;;;23.98;52.41
21290;BME280;10804;48.988;2.408;2022-07-21T04:59:38;101293.34;;;23.97;52.32
21290;BME280;10804;48.988;2.408;2022-07-21T05:02:06;101299.53;;;23.97;52.35
21290;BME280;10804;48.988;2.408;2022-07-21T05:04:35;101308.47;;;23.96;52.66
21290;BME280;10804;48.988;2.408;2022-07-21T05:07:02;101300.47;;;23.96;52.63
21290;BME280;10804;48.988;2.408;2022-07-21T05:09:30;101305.94;;;23.95;52.59
21290;BME280;10804;48.988;2.408;2022-07-21T05:11:57;101301.44;;;23.95;52.76
21290;BME280;10804;48.988;2.408;2022-07-21T05:14:25;101306.78;;;23.95;52.72
21290;BME280;10804;48.988;2.408;2022-07-21T05:16:52;101306.78;;;23.95;52.54
21290;BME280;10804;48.988;2.408;2022-07-21T05:19:19;101299.75;;;23.94;52.87
21290;BME280;10804;48.988;2.408;2022-07-21T05:21:48;101307.75;;;23.94;52.53
21290;BME280;10804;48.988;2.408;2022-07-21T05:24:15;101321.06;;;23.94;52.61
21290;BME280;10804;48.988;2.408;2022-07-21T05:26:43;101314.91;;;23.94;52.70
21290;BME280;10804;48.988;2.408;2022-07-21T05:29:10;101319.38;;;23.93;52.61
21290;BME280;10804;48.988;2.408;2022-07-21T05:31:37;101311.38;;;23.93;52.62
21290;BME280;10804;48.988;2.408;2022-07-21T05:34:05;101309.66;;;23.92;52.67
21290;BME280;10804;48.988;2.408;2022-07-21T05:36:32;101315.84;;;23.93;52.50
21290;BME280;10804;48.988;2.408;2022-07-21T05:39:01;101317.56;;;23.94;52.58
21290;BME280;10804;48.988;2.408;2022-07-21T05:41:29;101328.09;;;23.95;52.89
21290;BME280;10804;48.988;2.408;2022-07-21T05:43:56;101323.81;;;23.93;52.76
21290;BME280;10804;48.988;2.408;2022-07-21T05:46:23;101323.72;;;23.94;52.89
21290;BME280;10804;48.988;2.408;2022-07-21T05:48:53;101322.03;;;23.93;52.90
21290;BME280;10804;48.988;2.408;2022-07-21T05:51:20;101323.72;;;23.94;52.83
21290;BME280;10804;48.988;2.408;2022-07-21T05:53:48;101323.72;;;23.94;52.74
21290;BME280;10804;48.988;2.408;2022-07-21T05:56:16;101330.88;;;23.94;52.92
21290;BME280;10804;48.988;2.408;2022-07-21T05:58:46;101329.06;;;23.94;52.66
21290;BME280;10804;48.988;2.408;2022-07-21T06:01:13;101337.06;;;23.94;52.66
21290;BME280;10804;48.988;2.408;2022-07-21T06:03:45;101342.38;;;23.94;52.99
21290;BME280;10804;48.988;2.408;2022-07-21T06:06:14;101336.22;;;23.94;52.79
21290;BME280;10804;48.988;2.408;2022-07-21T06:08:43;101336.22;;;23.94;52.65
21290;BME280;10804;48.988;2.408;2022-07-21T06:11:13;101335.25;;;23.95;53.03
21290;BME280;10804;48.988;2.408;2022-07-21T06:13:43;101339.63;;;23.96;53.12
21290;BME280;10804;48.988;2.408;2022-07-21T06:16:11;101333.41;;;23.95;52.92
21290;BME280;10804;48.988;2.408;2022-07-21T06:18:38;101342.19;;;23.97;52.98
21290;BME280;10804;48.988;2.408;2022-07-21T06:21:06;101332.34;;;23.98;52.88
21290;BME280;10804;48.988;2.408;2022-07-21T06:23:33;101335.13;;;23.96;53.07
21290;BME280;10804;48.988;2.408;2022-07-21T06:26:00;101343.00;;;23.98;52.78
21290;BME280;10804;48.988;2.408;2022-07-21T06:28:28;101348.34;;;23.98;53.01
21290;BME280;10804;48.988;2.408;2022-07-21T06:30:56;101338.56;;;23.98;52.82
21290;BME280;10804;48.988;2.408;2022-07-21T06:33:24;101347.28;;;24.00;52.96
21290;BME280;10804;48.988;2.408;2022-07-21T06:35:51;101346.53;;;23.98;53.07
21290;BME280;10804;48.988;2.408;2022-07-21T06:38:19;101347.28;;;24.00;53.06
21290;BME280;10804;48.988;2.408;2022-07-21T06:40:46;101345.59;;;23.99;53.10
21290;BME280;10804;48.988;2.408;2022-07-21T06:43:13;101346.31;;;24.01;53.10
21290;BME280;10804;48.988;2.408;2022-07-21T06:45:41;101349.84;;;24.02;52.96
21290;BME280;10804;48.988;2.408;2022-07-21T06:48:09;101348.97;;;24.01;52.89
21290;BME280;10804;48.988;2.408;2022-07-21T06:50:38;101347.28;;;24.00;52.84
21290;BME280;10804;48.988;2.408;2022-07-21T06:53:05;101346.22;;;24.03;52.83
21290;BME280;10804;48.988;2.408;2022-07-21T06:55:33;101350.03;;;23.99;52.77
21290;BME280;10804;48.988;2.408;2022-07-21T06:58:09;101353.34;;;24.02;52.96
21290;BME280;10804;48.988;2.408;2022-07-21T07:00:37;101357.84;;;24.02;53.10
21290;BME280;10804;48.988;2.408;2022-07-21T07:03:04;101360.28;;;24.05;53.14
21290;BME280;10804;48.988;2.408;2022-07-21T07:05:34;101360.38;;;24.03;53.12
21290;BME280;10804;48.988;2.408;2022-07-21T07:08:02;101361.34;;;24.02;52.81
21290;BME280;10804;48.988;2.408;2022-07-21T07:10:29;101358.81;;;24.01;52.98
21290;BME280;10804;48.988;2.408;2022-07-21T07:12:57;101363.03;;;24.03;52.90
21290;BME280;10804;48.988;2.408;2022-07-21T07:15:25;101357.72;;;24.03;53.21
21290;BME280;10804;48.988;2.408;2022-07-21T07:17:52;101357.72;;;24.03;53.14
21290;BME280;10804;48.988;2.408;2022-07-21T07:20:20;101363.03;;;24.03;53.05
21290;BME280;10804;48.988;2.408;2022-07-21T07:22:49;101361.25;;;24.04;53.08
21290;BME280;10804;48.988;2.408;2022-07-21T07:25:17;101364.88;;;24.03;52.94
21290;BME280;10804;48.988;2.408;2022-07-21T07:27:45;101375.53;;;24.03;52.98
21290;BME280;10804;48.988;2.408;2022-07-21T07:30:13;101364.75;;;24.04;53.02
21290;BME280;10804;48.988;2.408;2022-07-21T07:32:41;101373.50;;;24.06;53.29
21290;BME280;10804;48.988;2.408;2022-07-21T07:35:10;101369.16;;;24.05;53.14
21290;BME280;10804;48.988;2.408;2022-07-21T07:37:39;101378.06;;;24.04;53.14
21290;BME280;10804;48.988;2.408;2022-07-21T07:40:10;101385.13;;;24.05;53.09
21290;BME280;10804;48.988;2.408;2022-07-21T07:42:38;101386.69;;;24.08;53.29
21290;BME280;10804;48.988;2.408;2022-07-21T07:45:07;101384.91;;;24.08;53.42
21290;BME280;10804;48.988;2.408;2022-07-21T07:47:35;101395.34;;;24.11;53.09
21290;BME280;10804;48.988;2.408;2022-07-21T07:50:03;101390.22;;;24.08;53.12
21290;BME280;10804;48.988;2.408;2022-07-21T07:52:31;101396.22;;;24.12;53.20
21290;BME280;10804;48.988;2.408;2022-07-21T07:54:58;101396.09;;;24.13;53.42
21290;BME280;10804;48.988;2.408;2022-07-21T07:57:27;101394.50;;;24.11;53.19
21290;BME280;10804;48.988;2.408;2022-07-21T07:59:54;101396.09;;;24.13;53.34
21290;BME280;10804;48.988;2.408;2022-07-21T08:02:21;101390.53;;;24.16;53.02
21290;BME280;10804;48.988;2.408;2022-07-21T08:04:49;101398.78;;;24.13;53.47
21290;BME280;10804;48.988;2.408;2022-07-21T08:07:16;101392.34;;;24.16;53.06
21290;BME280;10804;48.988;2.408;2022-07-21T08:09:44;101393.94;;;24.18;53.23
21290;BME280;10804;48.988;2.408;2022-07-21T08:12:11;101396.50;;;24.20;53.28
21290;BME280;10804;48.988;2.408;2022-07-21T08:14:40;101393.22;;;24.16;52.96
21290;BME280;10804;48.988;2.408;2022-07-21T08:17:07;101397.56;;;24.17;53.35
21290;BME280;10804;48.988;2.408;2022-07-21T08:19:34;101397.38;;;24.20;53.17
21290;BME280;10804;48.988;2.408;2022-07-21T08:22:02;101394.72;;;24.20;53.08
21290;BME280;10804;48.988;2.408;2022-07-21T08:24:29;101402.47;;;24.23;53.11
21290;BME280;10804;48.988;2.408;2022-07-21T08:26:57;101393.50;;;24.24;52.98
21290;BME280;10804;48.988;2.408;2022-07-21T08:29:24;101394.25;;;24.26;53.34
21290;BME280;10804;48.988;2.408;2022-07-21T08:31:53;101397.78;;;24.27;53.08
21290;BME280;10804;48.988;2.408;2022-07-21T08:34:20;101401.06;;;24.30;53.06
21290;BME280;10804;48.988;2.408;2022-07-21T08:36:47;101406.19;;;24.33;53.24
21290;BME280;10804;48.988;2.408;2022-07-21T08:39:15;101399.16;;;24.32;53.04
21290;BME280;10804;48.988;2.408;2022-07-21T08:41:42;101397.97;;;24.36;53.20
21290;BME280;10804;48.988;2.408;2022-07-21T08:44:10;101399.69;;;24.37;53.09
21290;BME280;10804;48.988;2.408;2022-07-21T08:46:38;101397.75;;;24.39;53.16
21290;BME280;10804;48.988;2.408;2022-07-21T08:49:09;101399.44;;;24.40;53.29
21290;BME280;10804;48.988;2.408;2022-07-21T08:51:37;101399.25;;;24.43;53.15
21290;BME280;10804;48.988;2.408;2022-07-21T08:54:05;101401.78;;;24.45;53.14
21290;BME280;10804;48.988;2.408;2022-07-21T08:56:32;101402.66;;;24.45;53.06
21290;BME280;10804;48.988;2.408;2022-07-21T08:58:59;101407.75;;;24.48;52.99
21290;BME280;10804;48.988;2.408;2022-07-21T09:01:28;101414.78;;;24.49;52.91
21290;BME280;10804;48.988;2.408;2022-07-21T09:03:55;101408.28;;;24.53;53.54
21290;BME280;10804;48.988;2.408;2022-07-21T09:06:52;101409.25;;;24.52;53.14
21290;BME280;10804;48.988;2.408;2022-07-21T09:09:20;101402.94;;;24.53;53.06
21290;BME280;10804;48.988;2.408;2022-07-21T09:11:49;101403.69;;;24.55;53.19
21290;BME280;10804;48.988;2.408;2022-07-21T09:14:18;101401.91;;;24.56;53.09
21290;BME280;10804;48.988;2.408;2022-07-21T09:16:49;101404.44;;;24.57;53.29
21290;BME280;10804;48.988;2.408;2022-07-21T09:19:20;101399.88;;;24.59;53.21
21290;BME280;10804;48.988;2.408;2022-07-21T09:21:51;101405.94;;;24.61;53.16
21290;BME280;10804;48.988;2.408;2022-07-21T09:24:21;101404.97;;;24.62;53.22
21290;BME280;10804;48.988;2.408;2022-07-21T09:27:06;101401.47;;;24.62;53.26
21290;BME280;10804;48.988;2.408;2022-07-21T09:29:43;101410.06;;;24.65;53.28
21290;BME280;10804;48.988;2.408;2022-07-21T09:32:22;101409.88;;;24.68;53.29
21290;BME280;10804;48.988;2.408;2022-07-21T09:34:51;101404.53;;;24.68;53.24
21290;BME280;10804;48.988;2.408;2022-07-21T09:37:21;101403.44;;;24.71;53.10
21290;BME280;10804;48.988;2.408;2022-07-21T09:39:51;101395.31;;;24.72;53.35
21290;BME280;10804;48.988;2.408;2022-07-21T09:42:24;101404.09;;;24.74;53.31
21290;BME280;10804;48.988;2.408;2022-07-21T09:44:54;101401.19;;;24.77;53.24
21290;BME280;10804;48.988;2.408;2022-07-21T09:47:23;101408.09;;;24.79;53.23
21290;BME280;10804;48.988;2.408;2022-07-21T09:49:51;101411.63;;;24.80;53.23
21290;BME280;10804;48.988;2.408;2022-07-21T09:52:28;101404.38;;;24.82;53.27
21290;BME280;10804;48.988;2.408;2022-07-21T09:54:58;101402.94;;;24.89;53.37
21290;BME280;10804;48.988;2.408;2022-07-21T09:57:26;101407.59;;;24.98;56.91
21290;BME280;10804;48.988;2.408;2022-07-21T09:59:54;101400.94;;;25.03;55.82
21290;BME280;10804;48.988;2.408;2022-07-21T10:02:24;101402.19;;;25.10;55.86
21290;BME280;10804;48.988;2.408;2022-07-21T10:04:56;101404.63;;;25.13;57.37
21290;BME280;10804;48.988;2.408;2022-07-21T10:07:26;101407.91;;;25.17;57.40
21290;BME280;10804;48.988;2.408;2022-07-21T10:09:55;101406.63;;;25.22;57.35
21290;BME280;10804;48.988;2.408;2022-07-21T10:12:23;101404.28;;;25.18;56.19
21290;BME280;10804;48.988;2.408;2022-07-21T10:14:51;101398.00;;;25.19;56.05
21290;BME280;10804;48.988;2.408;2022-07-21T10:17:20;101394.34;;;25.20;55.83
21290;BME280;10804;48.988;2.408;2022-07-21T10:20:01;101403.03;;;25.23;55.60
21290;BME280;10804;48.988;2.408;2022-07-21T10:22:40;101401.19;;;25.24;55.51
21290;BME280;10804;48.988;2.408;2022-07-21T10:25:11;101402.53;;;25.29;55.31
21290;BME280;10804;48.988;2.408;2022-07-21T10:27:38;101408.72;;;25.30;55.26
21290;BME280;10804;48.988;2.408;2022-07-21T10:30:07;101406.78;;;25.32;55.27
21290;BME280;10804;48.988;2.408;2022-07-21T10:32:37;101413.84;;;25.33;55.12
21290;BME280;10804;48.988;2.408;2022-07-21T10:35:26;101414.44;;;25.36;55.19
21290;BME280;10804;48.988;2.408;2022-07-21T10:37:56;101417.00;;;25.38;55.03
21290;BME280;10804;48.988;2.408;2022-07-21T10:40:40;101414.25;;;25.39;55.01
21290;BME280;10804;48.988;2.408;2022-07-21T10:43:35;101413.16;;;25.42;54.93
21290;BME280;10804;48.988;2.408;2022-07-21T10:46:02;101412.91;;;25.45;54.76
21290;BME280;10804;48.988;2.408;2022-07-21T10:48:46;101414.63;;;25.46;54.69
21290;BME280;10804;48.988;2.408;2022-07-21T10:51:16;101412.66;;;25.48;54.75
21290;BME280;10804;48.988;2.408;2022-07-21T10:53:44;101413.28;;;25.51;54.71
21290;BME280;10804;48.988;2.408;2022-07-21T10:56:25;101403.47;;;25.52;54.39
21290;BME280;10804;48.988;2.408;2022-07-21T10:58:53;101417.34;;;25.57;54.60
21290;BME280;10804;48.988;2.408;2022-07-21T11:01:21;101417.19;;;25.58;54.57
21290;BME280;10804;48.988;2.408;2022-07-21T11:04:06;101406.28;;;25.61;54.42
21290;BME280;10804;48.988;2.408;2022-07-21T11:06:34;101406.03;;;25.64;54.18
21290;BME280;10804;48.988;2.408;2022-07-21T11:09:12;101406.91;;;25.65;54.25
21290;BME280;10804;48.988;2.408;2022-07-21T11:11:56;101405.69;;;25.69;54.32
21290;BME280;10804;48.988;2.408;2022-07-21T11:14:35;101408.09;;;25.72;54.27
21290;BME280;10804;48.988;2.408;2022-07-21T11:17:03;101408.00;;;25.73;54.39
21290;BME280;10804;48.988;2.408;2022-07-21T11:19:34;101418.56;;;25.75;54.21
21290;BME280;10804;48.988;2.408;2022-07-21T11:22:04;101412.97;;;25.78;54.04
21290;BME280;10804;48.988;2.408;2022-07-21T11:24:33;101410.09;;;25.81;54.17
21290;BME280;10804;48.988;2.408;2022-07-21T11:27:02;101406.19;;;25.85;54.06
21290;BME280;10804;48.988;2.408;2022-07-21T11:29:31;101405.09;;;25.87;53.94
21290;BME280;10804;48.988;2.408;2022-07-21T11:31:59;101400.66;;;25.88;53.93
21290;BME280;10804;48.988;2.408;2022-07-21T11:34:46;101400.41;;;25.91;54.15
21290;BME280;10804;48.988;2.408;2022-07-21T11:37:15;101397.84;;;25.89;54.14
21290;BME280;10804;48.988;2.408;2022-07-21T11:39:45;101410.00;;;25.93;54.04
21290;BME280;10804;48.988;2.408;2022-07-21T11:42:13;101396.50;;;25.95;53.82
21290;BME280;10804;48.988;2.408;2022-07-21T11:44:42;101395.41;;;25.97;54.06
21290;BME280;10804;48.988;2.408;2022-07-21T11:47:11;101395.19;;;26.00;53.91
21290;BME280;10804;48.988;2.408;2022-07-21T11:49:39;101392.38;;;26.02;53.62
21290;BME280;10804;48.988;2.408;2022-07-21T11:52:09;101393.84;;;26.06;53.89
21290;BME280;10804;48.988;2.408;2022-07-21T11:54:42;101392.75;;;26.08;53.83
21290;BME280;10804;48.988;2.408;2022-07-21T11:57:12;101390.81;;;26.10;53.62
21290;BME280;10804;48.988;2.408;2022-07-21T11:59:40;101397.75;;;26.13;53.68
21290;BME280;10804;48.988;2.408;2022-07-21T12:02:09;101394.81;;;26.16;53.74
21290;BME280;10804;48.988;2.408;2022-07-21T12:04:40;101391.16;;;26.17;53.55
21290;BME280;10804;48.988;2.408;2022-07-21T12:07:14;101389.22;;;26.19;53.76
21290;BME280;10804;48.988;2.408;2022-07-21T12:09:44;101387.28;;;26.21;53.49
21290;BME280;10804;48.988;2.408;2022-07-21T12:12:13;101389.69;;;26.24;53.68
21290;BME280;10804;48.988;2.408;2022-07-21T12:14:42;101389.59;;;26.25;53.52
21290;BME280;10804;48.988;2.408;2022-07-21T12:17:11;101385.81;;;26.28;53.60
21290;BME280;10804;48.988;2.408;2022-07-21T12:19:38;101382.88;;;26.31;53.55
21290;BME280;10804;48.988;2.408;2022-07-21T12:22:06;101386.28;;;26.33;53.57
21290;BME280;10804;48.988;2.408;2022-07-21T12:25:03;101377.03;;;26.37;53.14
21290;BME280;10804;48.988;2.408;2022-07-21T12:27:34;101374.25;;;26.38;53.19
21290;BME280;10804;48.988;2.408;2022-07-21T12:30:03;101377.53;;;26.42;53.43
21290;BME280;10804;48.988;2.408;2022-07-21T12:32:44;101378.25;;;26.44;53.25
21290;BME280;10804;48.988;2.408;2022-07-21T12:35:22;101384.31;;;26.46;53.10
21290;BME280;10804;48.988;2.408;2022-07-21T12:38:01;101378.13;;;26.45;53.21
21290;BME280;10804;48.988;2.408;2022-07-21T12:40:31;101386.03;;;26.47;53.47
21290;BME280;10804;48.988;2.408;2022-07-21T12:43:12;101389.44;;;26.49;53.28
21290;BME280;10804;48.988;2.408;2022-07-21T12:45:48;101388.47;;;26.50;53.16
21290;BME280;10804;48.988;2.408;2022-07-21T12:48:18;101391.88;;;26.52;52.91
21290;BME280;10804;48.988;2.408;2022-07-21T12:51:07;101386.28;;;26.55;53.07
21290;BME280;10804;48.988;2.408;2022-07-21T12:53:40;101387.97;;;26.56;53.09
21290;BME280;10804;48.988;2.408;2022-07-21T12:56:08;101393.09;;;26.59;53.43
21290;BME280;10804;48.988;2.408;2022-07-21T12:58:37;101393.94;;;26.59;53.12
21290;BME280;10804;48.988;2.408;2022-07-21T13:01:06;101387.63;;;26.60;53.15